createdAt,value
2023-05-01T14:06:50.693Z,100952.89
2023-05-01T14:11:58.955Z,100949.84
2023-05-01T14:17:04.701Z,100941.19
2023-05-01T14:22:10.848Z,100938.30
2023-05-01T14:27:17.373Z,100939.42
2023-05-01T14:32:23.195Z,100925.03
2023-05-01T14:37:29.027Z,100925.66
2023-05-01T14:42:36.599Z,100926.03
2023-05-01T14:47:44.125Z,100915.31
2023-05-01T14:52:55.716Z,100908.13
2023-05-01T14:58:03.703Z,100887.26
2023-05-01T15:03:09.319Z,100890.98
2023-05-01T15:08:14.994Z,100882.98
2023-05-01T15:13:21.407Z,100882.13
2023-05-01T15:18:27.638Z,100882.98
2023-05-01T15:23:33.881Z,100887.99
2023-05-01T15:28:39.304Z,100877.45
2023-05-01T15:33:46.796Z,100874.55
2023-05-01T15:38:52.290Z,100872.17
2023-05-01T15:43:57.989Z,100866.23
2023-05-01T15:49:03.425Z,100861.70
2023-05-01T15:54:09.064Z,100853.06
2023-05-01T15:59:14.499Z,100849.88
2023-05-01T16:04:20.251Z,100835.59
2023-05-01T16:09:30.117Z,100846.01
2023-05-01T16:14:42.181Z,100836.44
2023-05-01T16:19:48.163Z,100833.25
2023-05-01T16:24:53.679Z,100833.09
2023-05-01T16:29:59.690Z,100830.56
2023-05-01T16:35:06.115Z,100822.52
2023-05-01T16:40:19.126Z,100828.14
2023-05-01T16:45:24.634Z,100825.07
2023-05-01T16:50:33.897Z,100823.63
2023-05-01T16:55:41.371Z,100825.76
2023-05-01T17:00:46.821Z,100823.84
2023-05-01T17:05:52.362Z,100821.30
2023-05-01T17:10:57.870Z,100821.78
2023-05-01T17:16:06.058Z,100820.30
2023-05-01T17:21:11.896Z,100821.52
2023-05-01T17:26:17.509Z,100822.44
2023-05-01T17:31:23.072Z,100822.72
2023-05-01T17:36:29.355Z,100813.63
2023-05-01T17:41:34.950Z,100804.02
2023-05-01T17:46:41.646Z,100802.57
2023-05-01T17:51:48.532Z,100804.82
2023-05-01T17:57:20.182Z,100796.02
2023-05-01T18:02:26.463Z,100800.03
2023-05-01T18:07:35.166Z,100792.87
2023-05-01T18:13:17.589Z,100790.41
2023-05-01T18:18:23.371Z,100781.30
2023-05-01T18:23:38.085Z,100786.55
2023-05-01T18:28:43.792Z,100783.61
2023-05-01T18:33:50.387Z,100785.06
2023-05-01T18:38:56.304Z,100783.27
2023-05-01T18:44:25.941Z,100787.41
2023-05-01T18:50:02.430Z,100792.17
2023-05-01T18:55:11.433Z,100781.48
2023-05-01T19:00:17.717Z,100776.28
2023-05-01T19:05:33.868Z,100771.50
2023-05-01T19:10:39.479Z,100774.48
2023-05-01T19:15:45.131Z,100764.42
2023-05-01T19:20:51.724Z,100766.88
2023-05-01T19:25:57.263Z,100762.66
2023-05-01T19:31:03.296Z,100763.42
2023-05-01T19:36:10.894Z,100756.53
2023-05-01T19:41:16.500Z,100767.20
2023-05-01T19:46:22.169Z,100774.41
2023-05-01T19:51:28.634Z,100769.83
2023-05-01T19:56:34.879Z,100768.03
2023-05-01T20:02:01.650Z,100768.08
2023-05-01T20:07:07.229Z,100768.50
2023-05-01T20:12:14.368Z,100756.41
2023-05-01T20:17:19.851Z,100757.14
2023-05-01T20:22:25.468Z,100753.16
2023-05-01T20:27:31.333Z,100753.68
2023-05-01T20:32:38.521Z,100746.51
2023-05-01T20:38:03.686Z,100749.53
2023-05-01T20:43:09.643Z,100747.10
2023-05-01T20:48:15.288Z,100741.02
2023-05-01T20:53:23.475Z,100741.38
2023-05-01T20:58:29.022Z,100742.17
2023-05-01T21:03:34.779Z,100747.72
2023-05-01T21:08:40.429Z,100743.52
2023-05-01T21:13:45.873Z,100743.90
2023-05-01T21:18:51.468Z,100746.92
2023-05-01T21:24:31.781Z,100741.16
2023-05-01T21:29:41.207Z,100737.77
2023-05-01T21:40:41.411Z,100738.14
2023-05-01T21:45:53.009Z,100735.39
2023-05-01T21:50:58.776Z,100738.08
2023-05-01T21:56:05.183Z,100735.89
2023-05-01T22:01:12.598Z,100738.80
2023-05-01T22:06:19.774Z,100733.41
2023-05-01T22:11:26.109Z,100725.23
2023-05-01T22:16:31.625Z,100727.34
2023-05-01T22:21:37.421Z,100720.73
2023-05-01T22:26:42.866Z,100725.09
2023-05-01T22:31:49.233Z,100724.81
2023-05-01T22:36:55.077Z,100725.82
2023-05-01T22:42:00.736Z,100729.58
2023-05-01T22:47:07.224Z,100734.48
2023-05-01T22:52:12.757Z,100725.66
2023-05-01T22:57:18.198Z,100728.45
2023-05-01T23:02:23.806Z,100723.08
2023-05-01T23:07:29.324Z,100727.64
2023-05-01T23:12:35.107Z,100730.17
2023-05-01T23:17:41.434Z,100729.64
2023-05-01T23:22:48.795Z,100726.84
2023-05-01T23:27:57.129Z,100730.09
2023-05-01T23:33:06.158Z,100721.00
2023-05-01T23:38:13.958Z,100708.03
2023-05-01T23:43:21.330Z,100695.86
2023-05-01T23:48:26.842Z,100706.02
2023-05-01T23:53:32.471Z,100699.19
2023-05-01T23:58:38.006Z,100702.63
